Terminal Aerodrome Forecast
Issued by NWS

Home | Current Version | Previous Version | Text Only | Print | Product List | Glossary On
Versions: 1 2 3 4 5 6 7 8 9 10 11 12 13
000
FTUS43 KPAH 211100
TAFCGI
TAF
KCGI 211120Z 2112/2212 00000KT P6SM SCT070 BKN250
     FM211400 22006KT P6SM SCT050 BKN080
     FM211700 24008KT P6SM VCSH SCT030 BKN060 PROB30 2122/2204 4SM
      -TSRA BR BKN030CB
     FM220800 32008KT 5SM BR BKN035=

USA.gov is the U.S. government's official web portal to all federal, state and local government web resources and services.